Hlavní strana
METAR-TAF:

METAR-TAF

Letiště :

Marion, Jižní Karolína, Spojené státy americké

zeměpisná šířka: 34-10-52N, zeměpisná délka: 079-20-05W, výška: 28 m

Aktuální stav počasí

Zpráva byla vytvořena před 21 minutami, v 00:55 UTC
Bezvětří
Teplota 21°C
Vlhkost vzduchu 100%
Tlak 1018 hPa
Viditelnost: 11.3 km
Polojasno ve výšce 200 ft
Polojasno ve výšce 1100 ft
Oblačno až skoro zataženo ve výšce 4600 ft
slabý déšť

METAR: KMAO 300055Z AUTO 00000KT 7SM -RA SCT002 SCT011 BKN046 21/21 A3005 RMK AO2 P0022

Čas: 21:16 (01:16 UTC)


TAF: chybějící

Stav a předpovědi počasí z více než 4 000 letišť (zprávy METAR a TAF).

Červené a žluté tečky na mapě představují dostupné meteorologické stanice.

Když kurzor umístíte na tečku, zobrazí se název stanice.

Pak kliknutím zobrazíte stav a předpověď počasí.

Chcete-li změnit mapu, kliknutím na zelené tlačítko se znaménkem +mapu přiblížíte, kliknutím na zelené tlačítko se znaménkem – mapu oddálíte a kliknutím na zelené šipky přejdete na sousední mapy.


METAR-TAF: